Terminal Aerodrome Forecast
Issued by NWS

Home | Current Version | Previous Version | Text Only | Print | Product List | Glossary On
Versions: 1 2 3 4 5 6 7 8 9 10 11 12 13 14 15 16
000
FTUS44 KLZK 261138
TAFADF
TAF
KADF 261138Z 2612/2712 00000KT 1 1/2SM BR BKN001 OVC120
      TEMPO 2612/2614 3/4SM BR
     FM261400 15004KT P6SM VCSH SCT080 OVC120
      TEMPO 2618/2622 -SHRA SCT035 BKN050
     FM270000 VRB03KT P6SM SCT100 SCT250
     FM270600 00000KT P6SM SCT250=

USA.gov is the U.S. government's official web portal to all federal, state and local government web resources and services.